Santa Ursula — CQFC — position and weather

sailwx.info

Track history (hours):
 
Tides and Currents Weather Stations Pressure Air Temp Water Temp Dewpoint Dewpoint Depression Visibility Wind Speed Wind Dir Waves Ship Positions

Santa Ursula

Last reported at 2018-Mar-12 09:34 UTC. Time now 2018-Jun-20 04:03 UTC.
Position S 33°02' W 071°37'.
Warning: this ship's position is months out of date.

Length 300 m; draft 11.2 m.

Type: Ship (hazmat cat A). MMSI: 255805604.

Date/timePositionNaut miles runAvg speedWind from/ knotsBaromVisibWave heightAir tempDewpointWater temp
2018-Mar-12 09:34S 33°02' W 071°37'1 1.8
2018-Mar-12 08:44S 33°01' W 071°37'2 7.0
2018-Mar-12 08:30S 32°59' W 071°38'4 8.5
2018-Mar-12 08:00S 32°55' W 071°39'4 8.5
2018-Mar-12 07:30S 32°51' W 071°40'4 8.6
2018-Mar-12 07:00S 32°47' W 071°41'4 8.5
2018-Mar-12 06:30S 32°43' W 071°43'4 8.4
2018-Mar-12 06:00S 32°38' W 071°44'4 8.0
2018-Mar-12 05:30S 32°35' W 071°45'  
2018-Mar-04 23:23S 12°03' W 077°09'0 0.0
2018-Mar-04 22:59S 12°03' W 077°09'392 8.4
2018-Mar-03 00:00S 07°12' W 081°36'23019.2 130 / 171009.510.8 23.021.223.0
2018-Mar-02 12:00S 04°12' W 084°00'   130 / 121010.210.8 24.121.424.0
Track history (hours):
 
Tides and Currents Weather Stations Pressure Air Temp Water Temp Dewpoint Dewpoint Depression Visibility Wind Speed Wind Dir Waves Ship Positions

Santa Ursula

Last reported at 2018-Mar-12 09:34 UTC. Time now 2018-Jun-20 04:03 UTC.
Position S 33°02' W 071°37'.
Warning: this ship's position is months out of date.

Length 300 m; draft 11.2 m.

Type: Ship (hazmat cat A). MMSI: 255805604.

Date/timePositionNaut miles runAvg speedWind from/ knotsBaromVisibWave heightAir tempDewpointWater temp
2018-Mar-12 09:34S 33°02' W 071°37'1 1.8
2018-Mar-12 08:44S 33°01' W 071°37'2 7.0
2018-Mar-12 08:30S 32°59' W 071°38'4 8.5
2018-Mar-12 08:00S 32°55' W 071°39'4 8.5
2018-Mar-12 07:30S 32°51' W 071°40'4 8.6
2018-Mar-12 07:00S 32°47' W 071°41'4 8.5
2018-Mar-12 06:30S 32°43' W 071°43'4 8.4
2018-Mar-12 06:00S 32°38' W 071°44'4 8.0
2018-Mar-12 05:30S 32°35' W 071°45'  
2018-Mar-04 23:23S 12°03' W 077°09'0 0.0
2018-Mar-04 22:59S 12°03' W 077°09'392 8.4
2018-Mar-03 00:00S 07°12' W 081°36'23019.2 130 / 171009.510.8 23.021.223.0
2018-Mar-02 12:00S 04°12' W 084°00'   130 / 121010.210.8 24.121.424.0

Dump ship's entire track history